Time;durP1;ratioP1;P1;durP2;ratioP2;P2;SDS_P1;SDS_P2;PMS_P1;PMS_P2;Temp;Humidity;BMP_temperature;BMP_pressure;BME280_temperature;BME280_humidity;BME280_pressure;Samples;Min_cycle;Max_cycle;Signal;HPM_P1;HPM_P2
2021/09/28 00:00:13;;;;;;;22.98;15.00;;;;;;;18.12;58.70;94037.38;4958840;28;20121;-70
2021/09/28 00:02:39;;;;;;;18.25;14.93;;;;;;;18.15;58.51;94042.81;4954403;28;20053;-73
2021/09/28 00:05:06;;;;;;;15.30;13.23;;;;;;;18.34;58.12;94048.19;4961516;28;20049;-72
2021/09/28 00:07:31;;;;;;;19.08;13.25;;;;;;;18.46;57.87;94068.81;4982605;28;20026;-71
2021/09/28 00:09:57;;;;;;;17.73;13.73;;;;;;;18.39;57.25;94042.50;4982791;28;20034;-72
2021/09/28 00:12:22;;;;;;;15.35;12.95;;;;;;;18.46;57.43;94060.72;4965049;28;20236;-71
2021/09/28 00:14:48;;;;;;;18.27;14.05;;;;;;;18.32;57.54;94036.22;4958035;28;20576;-71
2021/09/28 00:17:13;;;;;;;16.42;13.77;;;;;;;18.41;57.90;94055.63;4958344;28;20050;-70
2021/09/28 00:19:40;;;;;;;14.65;13.00;;;;;;;18.25;57.49;94025.31;4943660;28;20031;-71
2021/09/28 00:22:06;;;;;;;17.67;13.35;;;;;;;18.35;57.52;94038.19;4956398;28;20030;-69
2021/09/28 00:24:33;;;;;;;17.55;13.88;;;;;;;18.44;57.30;94049.53;4955873;28;20031;-70
2021/09/28 00:26:59;;;;;;;13.57;12.27;;;;;;;18.53;57.08;94058.16;4967280;28;20076;-73
2021/09/28 00:29:24;;;;;;;18.33;13.10;;;;;;;18.40;57.28;94046.78;4977505;28;20034;-72
2021/09/28 00:31:49;;;;;;;15.70;12.82;;;;;;;18.36;57.02;94027.09;4973423;28;20034;-70
2021/09/28 00:34:15;;;;;;;16.05;13.80;;;;;;;18.54;56.75;94046.25;4978881;28;20075;-70
2021/09/28 00:36:40;;;;;;;14.80;12.43;;;;;;;18.44;56.79;94033.38;4975854;28;20134;-72
2021/09/28 00:39:05;;;;;;;14.73;13.32;;;;;;;18.49;56.96;94051.94;4976970;28;20410;-70
2021/09/28 00:41:31;;;;;;;15.82;14.13;;;;;;;18.53;56.85;94049.31;4971150;28;20046;-70
2021/09/28 00:43:58;;;;;;;18.80;12.98;;;;;;;18.48;57.27;94036.16;4976332;28;20054;-71
2021/09/28 00:46:24;;;;;;;19.77;13.63;;;;;;;18.61;57.11;94043.69;4975892;28;20050;-73
2021/09/28 00:48:51;;;;;;;15.15;13.30;;;;;;;18.64;56.66;94047.56;4980381;28;20522;-70
2021/09/28 00:51:17;;;;;;;17.48;12.43;;;;;;;18.33;56.84;93994.72;4982807;28;20046;-71
2021/09/28 00:53:43;;;;;;;13.95;12.48;;;;;;;18.60;56.80;94030.56;4977247;28;20512;-72
2021/09/28 00:56:14;;;;;;;15.80;13.90;;;;;;;18.63;56.45;94027.94;4978778;28;20161;-71
2021/09/28 00:58:40;;;;;;;14.40;12.77;;;;;;;18.72;56.47;94036.63;4982277;28;20073;-72
2021/09/28 01:01:07;;;;;;;14.45;12.95;;;;;;;18.73;56.30;94027.38;4977500;28;20026;-71
2021/09/28 01:03:33;;;;;;;15.52;13.55;;;;;;;18.79;56.07;94042.13;4978941;28;20130;-71
2021/09/28 01:05:59;;;;;;;14.55;13.02;;;;;;;18.86;55.71;94028.00;4976362;28;20042;-70
2021/09/28 01:08:26;;;;;;;13.32;12.02;;;;;;;18.87;55.31;94027.63;4974206;28;20046;-73
2021/09/28 01:10:51;;;;;;;16.05;12.25;;;;;;;18.86;55.54;94036.06;4977003;28;20034;-71
2021/09/28 01:13:17;;;;;;;13.68;12.27;;;;;;;18.89;55.63;94049.59;4975584;28;20830;-71
2021/09/28 01:16:00;;;;;;;15.82;13.00;;;;;;;18.74;55.90;94047.81;4978036;28;20046;-72
2021/09/28 01:18:38;;;;;;;14.50;12.90;;;;;;;18.76;55.80;94050.94;4980518;28;20042;-70
2021/09/28 01:21:06;;;;;;;18.67;13.65;;;;;;;18.68;55.64;94038.41;4982740;28;20104;-73
2021/09/28 01:23:32;;;;;;;16.00;14.40;;;;;;;18.56;55.46;94018.97;4979474;28;20033;-70
2021/09/28 01:25:57;;;;;;;14.27;12.57;;;;;;;18.61;55.84;94016.75;4974869;28;20039;-71
2021/09/28 01:28:23;;;;;;;17.50;14.15;;;;;;;18.86;55.08;94028.78;4982781;28;20596;-70
2021/09/28 01:30:48;;;;;;;15.95;13.95;;;;;;;18.73;55.48;94032.75;4978434;28;20042;-70
2021/09/28 01:33:15;;;;;;;14.43;12.75;;;;;;;18.57;55.64;94013.22;4980747;28;20049;-70
2021/09/28 01:35:41;;;;;;;17.63;13.45;;;;;;;18.65;55.73;94017.59;4980648;28;20122;-71
2021/09/28 01:38:07;;;;;;;15.10;13.48;;;;;;;18.70;55.71;94019.22;4978545;28;20042;-69
2021/09/28 01:40:34;;;;;;;14.35;12.95;;;;;;;18.67;55.60;94026.13;4978821;28;20549;-71
2021/09/28 01:43:09;;;;;;;17.55;12.27;;;;;;;18.60;55.45;94019.81;4979051;28;20077;-70
2021/09/28 01:45:36;;;;;;;14.35;12.13;;;;;;;18.71;55.39;94042.34;4979504;28;20039;-70
2021/09/28 01:48:01;;;;;;;21.88;13.90;;;;;;;18.65;55.35;94028.38;4978628;28;20042;-70
2021/09/28 01:50:30;;;;;;;14.27;12.77;;;;;;;18.60;55.56;94035.97;4979067;28;20043;-73
2021/09/28 01:52:56;;;;;;;19.20;14.23;;;;;;;18.45;56.27;94034.94;4969825;28;20034;-73
2021/09/28 01:55:21;;;;;;;15.70;11.70;;;;;;;18.42;56.31;94035.66;4961261;28;20039;-71
2021/09/28 01:57:47;;;;;;;16.55;12.60;;;;;;;18.30;56.06;94022.34;4978317;28;20089;-71
2021/09/28 02:00:13;;;;;;;16.95;13.27;;;;;;;18.36;56.32;94045.16;4978716;28;20035;-72
2021/09/28 02:02:38;;;;;;;17.38;14.00;;;;;;;18.19;56.78;94032.13;4982451;28;20037;-73
2021/09/28 02:05:04;;;;;;;22.40;13.15;;;;;;;18.10;57.09;94034.25;4977430;28;20478;-74
2021/09/28 02:07:29;;;;;;;13.13;11.75;;;;;;;18.41;56.63;94047.56;4975899;28;20026;-72
2021/09/28 02:09:54;;;;;;;15.18;12.13;;;;;;;18.53;56.25;94050.06;4976071;28;20104;-71
2021/09/28 02:12:20;;;;;;;14.15;11.60;;;;;;;18.44;56.23;94052.22;4978797;28;20049;-71
2021/09/28 02:14:45;;;;;;;15.73;12.32;;;;;;;18.34;56.56;94033.94;4975649;28;20039;-72
2021/09/28 02:17:11;;;;;;;17.83;12.27;;;;;;;18.45;56.74;94056.47;4975518;28;20049;-72
2021/09/28 02:19:36;;;;;;;15.77;11.95;;;;;;;18.55;56.23;94037.03;4977428;28;20109;-73
2021/09/28 02:22:01;;;;;;;15.35;12.00;;;;;;;18.64;55.64;94048.34;4979776;28;20040;-71
2021/09/28 02:24:27;;;;;;;13.27;11.95;;;;;;;18.56;55.82;94035.91;4986611;28;20037;-71
2021/09/28 02:26:52;;;;;;;15.25;13.20;;;;;;;18.47;56.28;94043.44;4973878;28;20061;-71
2021/09/28 02:29:18;;;;;;;15.52;13.57;;;;;;;18.47;56.53;94043.44;4983482;28;20036;-72
2021/09/28 02:31:43;;;;;;;18.42;13.35;;;;;;;18.48;56.63;94037.69;4979996;28;20045;-72
2021/09/28 02:34:10;;;;;;;15.20;13.55;;;;;;;18.52;56.53;94040.47;4976171;28;20109;-71
2021/09/28 02:36:38;;;;;;;16.20;14.57;;;;;;;18.55;56.70;94045.13;4976441;28;20042;-72
2021/09/28 02:39:08;;;;;;;17.30;14.35;;;;;;;18.51;56.41;94033.50;4980445;28;20389;-71
2021/09/28 02:41:34;;;;;;;15.45;13.70;;;;;;;18.68;55.98;94043.81;4975110;28;20458;-71
2021/09/28 02:44:00;;;;;;;15.20;13.60;;;;;;;18.63;56.28;94040.63;4978676;28;20038;-72
2021/09/28 02:46:27;;;;;;;16.05;14.45;;;;;;;18.57;56.84;94032.09;4979323;28;20265;-73
2021/09/28 02:48:52;;;;;;;18.05;15.07;;;;;;;18.67;56.51;94044.97;4974673;28;20164;-71
2021/09/28 02:51:18;;;;;;;17.80;14.43;;;;;;;18.74;56.16;94044.31;4978534;28;20042;-71
2021/09/28 02:53:43;;;;;;;19.80;13.48;;;;;;;18.80;56.02;94040.19;4977136;28;21188;-72
2021/09/28 02:56:08;;;;;;;17.20;15.38;;;;;;;18.64;56.22;94031.41;4978233;28;20593;-71
2021/09/28 02:58:34;;;;;;;16.95;14.30;;;;;;;18.59;56.65;94034.41;4979185;28;20037;-73
2021/09/28 03:00:59;;;;;;;15.38;13.52;;;;;;;18.77;56.49;94051.72;4977457;28;20036;-71
2021/09/28 03:03:24;;;;;;;17.20;14.93;;;;;;;18.93;55.99;94048.88;4976367;28;20550;-73
2021/09/28 03:05:50;;;;;;;16.42;14.82;;;;;;;18.66;56.92;94038.00;4977750;28;20050;-71
2021/09/28 03:08:15;;;;;;;16.77;14.10;;;;;;;18.79;57.14;94055.59;4978031;28;20037;-71
2021/09/28 03:10:43;;;;;;;16.48;14.77;;;;;;;18.69;57.58;94055.38;4981303;28;20794;-71
2021/09/28 03:13:09;;;;;;;16.20;14.48;;;;;;;18.24;57.29;93997.63;4976928;28;20428;-72
2021/09/28 03:15:34;;;;;;;18.33;15.73;;;;;;;18.61;57.40;94049.09;4977256;28;20050;-71
2021/09/28 03:17:59;;;;;;;19.25;16.65;;;;;;;18.55;58.04;94050.50;4985279;28;20080;-71
2021/09/28 03:20:25;;;;;;;21.60;16.65;;;;;;;18.52;58.49;94055.84;4971785;28;20081;-72
2021/09/28 03:22:50;;;;;;;21.63;17.00;;;;;;;18.36;58.52;94040.56;4979190;28;20439;-70
2021/09/28 03:25:16;;;;;;;21.85;16.42;;;;;;;18.29;58.91;94023.47;4980261;28;20052;-74
2021/09/28 03:27:41;;;;;;;17.45;15.73;;;;;;;18.42;59.09;94035.66;4976267;28;20572;-74
2021/09/28 03:30:07;;;;;;;18.63;16.38;;;;;;;18.35;58.79;94019.34;4995308;28;20069;-71
2021/09/28 03:32:36;;;;;;;19.83;16.15;;;;;;;18.34;58.71;94017.78;4986578;28;20045;-70
2021/09/28 03:35:02;;;;;;;23.05;16.83;;;;;;;18.45;58.43;94041.09;4975171;28;20042;-70
2021/09/28 03:37:28;;;;;;;19.27;17.25;;;;;;;18.45;58.83;94040.31;4981612;28;20459;-73
2021/09/28 03:39:53;;;;;;;18.63;16.70;;;;;;;18.48;58.67;94048.44;4975643;28;20035;-70
2021/09/28 03:42:18;;;;;;;23.40;16.85;;;;;;;18.38;58.66;94034.81;4973603;28;20041;-71
2021/09/28 03:44:44;;;;;;;19.98;17.02;;;;;;;18.39;58.51;94029.06;4979237;28;20086;-70
2021/09/28 03:47:10;;;;;;;19.92;16.05;;;;;;;18.43;59.00;94043.34;4979050;28;20042;-73
2021/09/28 03:49:36;;;;;;;20.05;16.48;;;;;;;18.69;58.15;94056.16;4980443;28;20520;-73
2021/09/28 03:52:01;;;;;;;20.30;16.73;;;;;;;18.64;58.19;94044.88;4980732;28;20042;-71
2021/09/28 03:54:27;;;;;;;16.83;14.85;;;;;;;18.69;58.13;94066.94;4977899;28;20625;-70
2021/09/28 03:56:52;;;;;;;35.15;29.52;;;;;;;18.70;57.97;94073.91;4973478;28;20506;-71
2021/09/28 03:59:17;;;;;;;36.65;31.85;;;;;;;18.55;58.49;94061.28;4972385;28;20856;-73
2021/09/28 04:01:43;;;;;;;28.88;21.10;;;;;;;18.63;58.45;94079.13;4975058;28;20038;-71
2021/09/28 04:04:09;;;;;;;21.33;16.73;;;;;;;18.65;58.11;94070.69;4972041;28;20018;-70
2021/09/28 04:06:34;;;;;;;19.23;17.42;;;;;;;18.53;57.94;94058.16;4973795;28;20035;-72
2021/09/28 04:09:00;;;;;;;21.52;14.70;;;;;;;18.54;57.72;94067.78;4976210;28;20095;-73
2021/09/28 04:11:25;;;;;;;18.67;14.10;;;;;;;18.51;57.65;94065.81;4976598;28;20485;-73
2021/09/28 04:13:51;;;;;;;20.85;16.48;;;;;;;18.45;57.64;94068.03;4976246;28;20027;-72
2021/09/28 04:16:16;;;;;;;19.48;15.63;;;;;;;18.27;57.82;94034.59;4968725;28;20203;-71
2021/09/28 04:18:45;;;;;;;17.70;15.20;;;;;;;18.46;58.06;94060.72;4977787;28;20083;-71
2021/09/28 04:21:11;;;;;;;18.20;14.57;;;;;;;18.46;57.73;94058.03;4980168;28;20066;-72
2021/09/28 04:23:37;;;;;;;17.55;13.70;;;;;;;18.35;57.90;94033.59;4995736;28;20108;-71
2021/09/28 04:26:03;;;;;;;15.75;13.80;;;;;;;18.63;57.25;94060.25;4968472;28;20039;-74
2021/09/28 04:28:29;;;;;;;16.58;13.40;;;;;;;18.40;58.01;94060.25;4977132;28;20031;-72
2021/09/28 04:30:54;;;;;;;15.32;13.82;;;;;;;18.37;57.97;94060.19;4985068;28;20458;-71
2021/09/28 04:33:20;;;;;;;16.15;12.88;;;;;;;18.22;58.17;94036.81;4974147;28;20061;-71
2021/09/28 04:35:45;;;;;;;15.68;13.00;;;;;;;18.27;58.20;94060.75;4983451;28;20065;-73
2021/09/28 04:38:11;;;;;;;15.55;13.43;;;;;;;18.31;58.00;94053.50;4975644;28;20031;-71
2021/09/28 04:40:36;;;;;;;17.38;13.55;;;;;;;18.34;58.23;94050.09;4980913;28;20035;-71
2021/09/28 04:43:02;;;;;;;15.70;14.07;;;;;;;18.27;58.31;94037.31;4975030;28;20045;-74
2021/09/28 04:45:28;;;;;;;17.50;14.30;;;;;;;18.15;58.24;94028.59;4979445;28;20031;-74
2021/09/28 04:47:53;;;;;;;19.17;14.05;;;;;;;18.19;58.27;94027.50;4977935;28;20092;-73
2021/09/28 04:50:19;;;;;;;17.75;13.70;;;;;;;18.06;58.29;94018.03;4978740;28;20091;-72
2021/09/28 04:52:44;;;;;;;15.30;13.65;;;;;;;18.25;58.26;94036.88;4979171;28;20565;-74
2021/09/28 04:55:10;;;;;;;18.85;14.15;;;;;;;18.16;58.46;94039.00;4979538;28;20209;-72
2021/09/28 04:57:35;;;;;;;15.18;12.13;;;;;;;18.20;58.22;94037.16;4985711;28;20046;-73
2021/09/28 05:00:01;;;;;;;13.27;11.93;;;;;;;18.16;58.09;94046.28;4982528;28;20034;-71
2021/09/28 05:02:26;;;;;;;15.40;13.13;;;;;;;18.13;58.46;94047.00;4979427;28;20550;-70
2021/09/28 05:04:52;;;;;;;14.20;12.77;;;;;;;18.21;58.04;94044.09;4984532;28;20034;-70
2021/09/28 05:07:17;;;;;;;13.65;11.88;;;;;;;18.15;58.29;94029.38;4976615;28;20045;-72
2021/09/28 05:09:43;;;;;;;13.65;12.18;;;;;;;18.15;58.32;94020.50;4969980;28;20461;-71
2021/09/28 05:12:08;;;;;;;18.65;15.35;;;;;;;18.19;58.45;94027.50;4974329;28;20031;-72
2021/09/28 05:14:34;;;;;;;15.32;13.70;;;;;;;18.36;58.41;94042.47;4979914;28;20050;-70
2021/09/28 05:16:59;;;;;;;15.20;13.70;;;;;;;18.51;58.39;94041.59;4980944;28;20058;-72
2021/09/28 05:19:25;;;;;;;18.05;14.02;;;;;;;18.39;58.04;94047.13;4983295;28;20024;-73
2021/09/28 05:21:51;;;;;;;14.95;13.30;;;;;;;18.34;58.06;94052.78;4981895;28;20039;-71
2021/09/28 05:24:17;;;;;;;14.68;12.73;;;;;;;18.28;58.68;94051.53;4972303;28;20034;-70
2021/09/28 05:26:42;;;;;;;14.13;11.60;;;;;;;18.29;58.69;94050.38;4989932;28;20070;-70
2021/09/28 05:29:08;;;;;;;13.18;11.57;;;;;;;18.33;58.63;94043.19;4976389;28;20042;-72
2021/09/28 05:31:33;;;;;;;15.68;11.75;;;;;;;18.34;58.48;94050.88;4972258;28;20458;-70
2021/09/28 05:33:59;;;;;;;17.50;11.40;;;;;;;18.38;57.26;94061.75;4975953;28;20050;-71
2021/09/28 05:36:24;;;;;;;15.45;9.98;;;;;;;18.34;56.67;94055.50;4970272;28;20091;-70
2021/09/28 05:38:50;;;;;;;15.95;10.27;;;;;;;18.42;57.12;94073.34;4977054;28;20430;-71
2021/09/28 05:41:16;;;;;;;11.35;9.73;;;;;;;18.50;56.81;94066.97;4978128;28;20038;-72
2021/09/28 05:43:41;;;;;;;11.10;10.00;;;;;;;18.53;56.48;94063.53;4975080;28;20069;-70
2021/09/28 05:46:08;;;;;;;11.88;10.20;;;;;;;18.52;55.98;94061.22;4984378;28;20023;-72
2021/09/28 05:48:34;;;;;;;15.55;10.45;;;;;;;18.27;56.19;94055.38;4977940;28;20050;-72
2021/09/28 05:50:59;;;;;;;15.27;11.05;;;;;;;18.27;56.66;94074.22;4972604;28;20151;-69
2021/09/28 05:53:36;;;;;;;12.82;10.38;;;;;;;18.11;56.05;94058.13;4982230;28;20042;-72
2021/09/28 05:56:06;;;;;;;12.52;10.63;;;;;;;18.10;57.31;94074.63;4978469;28;20043;-74
2021/09/28 05:58:32;;;;;;;15.38;10.55;;;;;;;17.96;57.41;94070.50;4974169;28;20049;-70
2021/09/28 06:00:57;;;;;;;12.98;10.23;;;;;;;18.02;58.61;94079.88;4980517;28;20049;-71
2021/09/28 06:03:22;;;;;;;14.35;11.18;;;;;;;17.95;57.81;94071.63;4980449;28;20422;-70
2021/09/28 06:05:48;;;;;;;11.63;10.43;;;;;;;17.66;57.87;94031.78;4977696;28;20034;-70
2021/09/28 06:08:13;;;;;;;14.00;10.85;;;;;;;17.97;57.09;94082.06;4977753;28;20050;-71
2021/09/28 06:10:42;;;;;;;11.75;10.13;;;;;;;18.00;56.98;94090.19;4975553;28;20494;-71
2021/09/28 06:13:07;;;;;;;11.73;10.05;;;;;;;17.90;56.40;94085.34;4982033;28;20026;-70
2021/09/28 06:15:32;;;;;;;14.50;9.65;;;;;;;18.03;56.50;94097.59;4980090;28;20042;-70
2021/09/28 06:17:58;;;;;;;18.23;10.27;;;;;;;17.97;56.15;94101.69;4970085;28;20046;-70
2021/09/28 06:20:23;;;;;;;11.60;9.68;;;;;;;18.01;55.66;94086.38;4983591;28;20201;-70
2021/09/28 06:22:49;;;;;;;14.48;10.25;;;;;;;18.11;55.94;94100.41;4974833;28;20143;-73
2021/09/28 06:25:15;;;;;;;13.05;10.20;;;;;;;18.17;56.73;94090.94;4975217;28;20022;-71
2021/09/28 06:27:40;;;;;;;12.43;10.15;;;;;;;18.33;56.48;94105.09;4974314;28;20046;-70
2021/09/28 06:30:06;;;;;;;14.00;10.43;;;;;;;18.29;55.71;94107.72;4977565;28;20042;-70
2021/09/28 06:32:41;;;;;;;11.38;10.18;;;;;;;18.23;54.75;94105.66;4977186;28;20540;-73
2021/09/28 06:35:07;;;;;;;15.32;10.80;;;;;;;18.33;54.78;94105.88;4972118;28;20042;-72
2021/09/28 06:37:32;;;;;;;15.52;11.15;;;;;;;18.30;55.54;94111.19;4980497;28;20083;-71
2021/09/28 06:39:58;;;;;;;12.95;9.15;;;;;;;18.33;56.50;94092.41;4977487;28;20046;-71
2021/09/28 06:42:24;;;;;;;16.15;10.55;;;;;;;18.56;56.13;94115.94;4975757;28;20053;-71
2021/09/28 06:44:49;;;;;;;15.02;11.73;;;;;;;18.41;55.62;94112.97;4979243;28;20893;-72
2021/09/28 06:47:15;;;;;;;24.20;12.40;;;;;;;18.34;55.47;94099.34;4979145;28;20114;-71
2021/09/28 06:49:40;;;;;;;12.55;10.68;;;;;;;18.29;54.97;94101.53;4960820;28;20034;-71
2021/09/28 06:52:07;;;;;;;13.15;11.63;;;;;;;18.45;54.75;94121.09;4978905;28;20036;-73
2021/09/28 06:54:32;;;;;;;15.95;11.57;;;;;;;18.61;55.45;94113.72;4963018;28;20038;-72
2021/09/28 06:56:57;;;;;;;15.35;11.40;;;;;;;18.44;54.92;94119.53;4952260;28;20515;-72
2021/09/28 06:59:23;;;;;;;18.85;12.10;;;;;;;18.21;54.99;94105.22;4954641;28;20034;-71
2021/09/28 07:01:48;;;;;;;13.50;11.23;;;;;;;18.25;54.98;94100.69;4957900;28;20093;-71
2021/09/28 07:04:14;;;;;;;15.75;10.85;;;;;;;18.36;54.91;94117.84;4952359;28;21024;-74
2021/09/28 07:06:39;;;;;;;17.27;12.20;;;;;;;18.32;54.58;94117.78;4958291;28;20399;-72
2021/09/28 07:09:05;;;;;;;15.95;11.45;;;;;;;18.39;54.44;94122.50;4956372;28;20553;-73
2021/09/28 07:11:30;;;;;;;19.88;12.20;;;;;;;18.29;55.07;94123.09;4955825;28;20035;-71
2021/09/28 07:13:55;;;;;;;13.38;11.05;;;;;;;18.16;55.11;94100.13;4958019;28;20596;-71
2021/09/28 07:16:21;;;;;;;13.57;11.23;;;;;;;18.35;54.98;94118.97;4958128;28;20339;-70
2021/09/28 07:18:47;;;;;;;14.55;12.32;;;;;;;18.28;55.46;94116.94;4953152;28;20055;-70
2021/09/28 07:21:13;;;;;;;14.40;11.90;;;;;;;18.44;54.72;94116.84;4961587;28;20042;-70
2021/09/28 07:23:38;;;;;;;18.50;10.85;;;;;;;18.38;54.58;94127.13;4955940;28;20534;-73
2021/09/28 07:26:06;;;;;;;14.32;11.13;;;;;;;18.13;54.86;94119.69;4959286;28;20050;-70
2021/09/28 07:28:31;;;;;;;18.52;11.63;;;;;;;18.10;54.97;94121.16;4959975;28;20059;-73
2021/09/28 07:30:57;;;;;;;20.02;12.20;;;;;;;18.01;55.49;94118.69;4955274;28;20042;-71
2021/09/28 07:33:22;;;;;;;19.50;13.82;;;;;;;18.04;55.47;94123.34;4954714;28;20061;-70
2021/09/28 07:35:48;;;;;;;19.27;13.15;;;;;;;17.92;55.57;94101.13;4954104;28;20134;-72
2021/09/28 07:38:14;;;;;;;16.92;14.25;;;;;;;18.08;56.03;94122.66;4961195;28;20039;-72
2021/09/28 07:40:43;;;;;;;18.55;14.52;;;;;;;18.11;56.03;94127.31;4957355;28;20068;-74
2021/09/28 07:43:09;;;;;;;20.33;14.27;;;;;;;17.89;55.71;94102.59;4962323;28;20019;-72
2021/09/28 07:45:35;;;;;;;18.98;14.27;;;;;;;18.09;55.78;94113.47;4962765;28;20064;-72
2021/09/28 07:48:01;;;;;;;22.35;14.65;;;;;;;18.18;56.36;94120.19;4954036;28;20035;-71
2021/09/28 07:50:27;;;;;;;22.08;14.35;;;;;;;18.09;56.27;94103.44;4955401;28;20074;-72
2021/09/28 07:52:53;;;;;;;16.52;13.25;;;;;;;18.12;56.26;94118.13;4960440;28;20027;-71
2021/09/28 07:55:18;;;;;;;16.52;12.60;;;;;;;18.25;56.38;94122.22;4951596;28;20038;-71
2021/09/28 07:57:44;;;;;;;18.67;13.45;;;;;;;18.34;56.08;94130.88;5038642;28;20063;-74
2021/09/28 08:00:11;;;;;;;21.08;13.88;;;;;;;18.34;55.69;94130.88;5008228;28;20037;-72
2021/09/28 08:02:38;;;;;;;21.27;14.13;;;;;;;18.53;55.75;94133.56;4980306;28;20465;-73
2021/09/28 08:05:05;;;;;;;18.45;13.90;;;;;;;18.28;55.86;94113.47;4973789;28;20039;-71
2021/09/28 08:07:30;;;;;;;24.50;14.27;;;;;;;18.27;56.26;94125.38;4977692;28;20508;-71
2021/09/28 08:09:56;;;;;;;18.08;13.40;;;;;;;18.61;55.27;94129.91;4978329;28;20081;-71
2021/09/28 08:12:21;;;;;;;20.42;12.73;;;;;;;18.78;55.32;94139.47;4969582;28;20038;-72
2021/09/28 08:14:47;;;;;;;13.80;11.75;;;;;;;18.86;55.09;94141.94;4976351;28;20433;-72
2021/09/28 08:17:13;;;;;;;17.80;12.63;;;;;;;18.98;54.83;94137.50;4968490;28;20046;-72
2021/09/28 08:19:43;;;;;;;15.40;11.32;;;;;;;18.98;54.22;94137.50;4980343;28;20042;-72
2021/09/28 08:22:12;;;;;;;16.40;12.27;;;;;;;19.01;54.38;94121.44;4979525;28;20059;-71
2021/09/28 08:24:43;;;;;;;16.48;12.40;;;;;;;18.80;55.42;94129.91;4979319;28;20099;-74
2021/09/28 08:29:58;;;;;;;14.10;11.13;;;;;;;18.94;54.96;94120.50;4976669;28;20107;-71
2021/09/28 08:32:24;;;;;;;13.95;11.23;;;;;;;19.27;55.14;94118.78;4973854;28;20056;-72
2021/09/28 08:34:49;;;;;;;16.88;11.90;;;;;;;19.39;54.56;94135.91;4978111;28;20031;-71
2021/09/28 08:37:15;;;;;;;15.93;11.52;;;;;;;18.93;54.24;94137.81;4978212;28;20033;-72
2021/09/28 08:39:41;;;;;;;15.43;10.90;;;;;;;18.71;54.47;94118.56;4968125;28;20096;-71
2021/09/28 08:42:06;;;;;;;15.05;10.52;;;;;;;18.80;55.45;94138.00;4974125;28;20038;-71
2021/09/28 08:44:32;;;;;;;17.98;9.63;;;;;;;18.82;54.52;94135.69;4976266;28;20043;-71
2021/09/28 08:46:58;;;;;;;13.38;9.73;;;;;;;18.68;54.20;94146.19;4974718;28;20045;-73
2021/09/28 08:49:23;;;;;;;13.93;9.95;;;;;;;18.79;54.29;94141.81;4976127;28;20039;-72
2021/09/28 08:51:50;;;;;;;14.25;10.70;;;;;;;18.91;54.02;94146.28;4977994;28;20486;-70
2021/09/28 08:54:17;;;;;;;13.00;10.38;;;;;;;18.84;53.97;94149.59;4976770;28;20031;-71
2021/09/28 08:56:43;;;;;;;13.55;9.20;;;;;;;18.86;53.34;94144.66;4976308;28;20046;-72
2021/09/28 08:59:14;;;;;;;14.18;10.63;;;;;;;18.70;53.15;94138.56;4977244;28;20494;-72
2021/09/28 09:01:57;;;;;;;16.20;9.90;;;;;;;18.78;53.84;94136.78;4977574;28;20054;-72
2021/09/28 09:04:25;;;;;;;18.73;10.48;;;;;;;18.97;53.11;94146.75;4977584;28;20030;-71
2021/09/28 09:06:50;;;;;;;13.73;10.48;;;;;;;19.39;52.10;94136.69;4971258;28;20038;-72
2021/09/28 09:09:17;;;;;;;12.32;10.23;;;;;;;19.55;52.17;94140.09;4980503;28;20053;-73
2021/09/28 09:11:47;;;;;;;16.40;9.98;;;;;;;19.45;51.90;94113.72;4976208;28;20038;-71
2021/09/28 09:14:25;;;;;;;13.32;10.82;;;;;;;19.39;52.70;94131.31;4978711;28;20057;-73
2021/09/28 09:16:52;;;;;;;16.90;11.07;;;;;;;19.43;52.58;94115.97;4977420;28;20026;-72
2021/09/28 09:19:24;;;;;;;12.07;10.18;;;;;;;19.51;52.90;94131.13;4976968;28;20038;-70
2021/09/28 09:21:51;;;;;;;15.63;10.73;;;;;;;19.77;51.84;94135.00;4979400;28;20187;-71
2021/09/28 09:24:49;;;;;;;13.48;11.25;;;;;;;19.85;52.43;94132.03;4977841;28;20057;-75
2021/09/28 09:27:28;;;;;;;17.63;11.35;;;;;;;19.60;51.14;94128.97;4988551;28;20512;-73
2021/09/28 09:30:11;;;;;;;14.75;10.32;;;;;;;19.74;51.31;94131.91;4974843;28;20474;-72
2021/09/28 09:32:51;;;;;;;11.88;9.57;;;;;;;20.00;49.98;94136.50;4978540;28;20528;-72
2021/09/28 09:35:31;;;;;;;16.35;11.63;;;;;;;19.90;50.58;94120.13;4972636;28;20589;-72
2021/09/28 09:38:15;;;;;;;13.25;10.57;;;;;;;20.08;50.70;94134.69;4978443;28;20030;-72
2021/09/28 09:40:48;;;;;;;15.55;11.15;;;;;;;20.07;50.93;94127.72;4979487;28;20033;-72
2021/09/28 09:43:27;;;;;;;13.65;9.98;;;;;;;19.86;50.46;94100.44;4975797;28;20031;-71
2021/09/28 09:46:09;;;;;;;14.57;10.43;;;;;;;20.01;50.54;94123.78;4973110;28;20084;-71
2021/09/28 09:48:35;;;;;;;14.15;9.88;;;;;;;20.18;50.85;94125.97;4980508;28;20057;-71
2021/09/28 09:51:12;;;;;;;11.88;9.93;;;;;;;20.17;50.77;94127.13;4979126;28;20050;-73
2021/09/28 09:53:50;;;;;;;14.82;9.73;;;;;;;20.13;50.57;94124.34;4974150;28;20642;-74
2021/09/28 09:56:17;;;;;;;15.77;10.73;;;;;;;20.20;50.59;94099.38;4977295;28;20046;-73
2021/09/28 09:58:42;;;;;;;14.23;11.23;;;;;;;20.27;50.02;94123.00;4976310;28;20022;-73
2021/09/28 10:01:08;;;;;;;12.25;10.15;;;;;;;20.00;50.62;94122.22;4976638;28;20065;-71
2021/09/28 10:03:38;;;;;;;13.80;10.52;;;;;;;19.98;50.90;94106.41;4976493;28;20038;-73
2021/09/28 10:06:05;;;;;;;14.93;10.35;;;;;;;20.12;50.32;94113.91;4977297;28;20161;-71
2021/09/28 10:08:32;;;;;;;12.85;10.18;;;;;;;20.23;50.47;94112.16;4980788;28;20153;-71
2021/09/28 10:10:58;;;;;;;13.10;10.82;;;;;;;20.22;49.66;94113.31;4970070;28;20026;-72
2021/09/28 10:13:45;;;;;;;14.00;10.77;;;;;;;20.29;51.04;94113.38;4991341;28;20027;-71
2021/09/28 10:16:29;;;;;;;14.55;10.05;;;;;;;20.36;50.64;94112.69;4969915;28;20053;-73
2021/09/28 10:18:55;;;;;;;15.38;11.18;;;;;;;20.45;50.21;94107.78;4957232;28;20755;-71
2021/09/28 10:21:38;;;;;;;12.80;10.02;;;;;;;20.54;50.10;94113.69;4964304;28;20070;-69
2021/09/28 10:24:33;;;;;;;11.52;9.55;;;;;;;20.52;50.30;94110.56;4961432;28;20928;-71
2021/09/28 10:26:59;;;;;;;12.93;10.50;;;;;;;20.32;50.20;94112.66;4974307;28;20477;-71
2021/09/28 10:29:45;;;;;;;13.60;9.80;;;;;;;20.19;50.82;94116.72;4950855;28;20043;-72
2021/09/28 10:32:23;;;;;;;10.95;9.85;;;;;;;20.59;51.29;94114.13;4952228;28;20161;-73
2021/09/28 10:35:07;;;;;;;14.02;9.50;;;;;;;20.74;50.78;94111.56;4948164;28;20031;-71
2021/09/28 10:37:39;;;;;;;18.42;11.25;;;;;;;20.79;51.24;94105.84;4949196;28;20022;-74
2021/09/28 10:40:05;;;;;;;16.25;10.50;;;;;;;20.47;50.24;94078.50;4954346;28;20072;-73
2021/09/28 10:42:49;;;;;;;11.85;10.65;;;;;;;20.41;49.42;94099.66;4974774;28;20683;-71
2021/09/28 10:45:21;;;;;;;14.15;10.85;;;;;;;20.54;49.48;94098.25;4964511;28;20080;-70
2021/09/28 10:47:52;;;;;;;13.55;9.73;;;;;;;20.55;49.54;94099.81;4964427;28;20657;-71
2021/09/28 10:50:27;;;;;;;12.88;9.70;;;;;;;20.63;49.74;94105.31;4962358;28;20046;-71
2021/09/28 10:52:56;;;;;;;16.60;12.23;;;;;;;20.63;50.16;94089.09;4977571;28;20066;-71
2021/09/28 10:55:26;;;;;;;11.35;10.02;;;;;;;20.97;49.79;94099.50;4976893;28;20137;-72
2021/09/28 10:57:59;;;;;;;13.23;10.30;;;;;;;21.00;49.03;94092.56;4978646;28;20042;-71
2021/09/28 11:00:30;;;;;;;12.88;11.50;;;;;;;20.97;48.06;94098.75;4991520;28;20439;-71
2021/09/28 11:02:58;;;;;;;11.80;9.68;;;;;;;20.74;47.81;94092.66;4975662;28;20038;-71
2021/09/28 11:05:30;;;;;;;16.15;10.63;;;;;;;20.68;48.16;94086.06;4980317;28;20062;-71
2021/09/28 11:08:00;;;;;;;13.60;9.60;;;;;;;20.72;48.15;94092.28;4979146;28;20237;-72
2021/09/28 11:10:26;;;;;;;12.13;10.52;;;;;;;20.89;48.84;94091.69;4978774;28;20149;-72
2021/09/28 11:12:52;;;;;;;11.73;9.95;;;;;;;21.03;48.65;94094.53;4975834;28;20046;-72
2021/09/28 11:15:22;;;;;;;11.93;10.73;;;;;;;20.92;47.36;94078.19;4978361;28;20380;-71
2021/09/28 11:17:48;;;;;;;12.18;9.48;;;;;;;21.10;46.98;94093.81;4974513;28;20604;-71
2021/09/28 11:20:20;;;;;;;14.65;10.32;;;;;;;21.16;46.78;94089.63;4977267;28;20038;-72